sensor_id;sensor_type;location;lat;lon;timestamp;temperature;humidity
52643;DHT22;38531;53.296;6.614;2024-02-28T00:01:50;4.20;99.90
52643;DHT22;38531;53.296;6.614;2024-02-28T00:04:16;3.60;99.90
52643;DHT22;38531;53.296;6.614;2024-02-28T00:06:42;1.20;99.90
52643;DHT22;38531;53.296;6.614;2024-02-28T00:09:07;5.30;99.90
52643;DHT22;38531;53.296;6.614;2024-02-28T00:11:33;1.00;99.90
52643;DHT22;38531;53.296;6.614;2024-02-28T00:13:59;2.30;99.90
52643;DHT22;38531;53.296;6.614;2024-02-28T00:16:28;4.80;99.90
52643;DHT22;38531;53.296;6.614;2024-02-28T00:18:54;3.80;99.90
52643;DHT22;38531;53.296;6.614;2024-02-28T00:21:19;2.20;99.90
52643;DHT22;38531;53.296;6.614;2024-02-28T00:23:45;4.50;99.90
52643;DHT22;38531;53.296;6.614;2024-02-28T00:26:14;4.80;99.90
52643;DHT22;38531;53.296;6.614;2024-02-28T00:28:39;2.40;99.90
52643;DHT22;38531;53.296;6.614;2024-02-28T00:31:05;3.80;99.90
52643;DHT22;38531;53.296;6.614;2024-02-28T00:33:31;3.90;99.90
52643;DHT22;38531;53.296;6.614;2024-02-28T00:35:56;4.30;99.90
52643;DHT22;38531;53.296;6.614;2024-02-28T00:38:22;4.30;99.90
52643;DHT22;38531;53.296;6.614;2024-02-28T00:40:48;3.90;99.90
52643;DHT22;38531;53.296;6.614;2024-02-28T00:43:13;2.70;99.90
52643;DHT22;38531;53.296;6.614;2024-02-28T00:45:39;1.80;99.90
52643;DHT22;38531;53.296;6.614;2024-02-28T00:48:05;3.10;99.90
52643;DHT22;38531;53.296;6.614;2024-02-28T00:50:31;2.60;99.90
52643;DHT22;38531;53.296;6.614;2024-02-28T00:52:56;2.60;99.90
52643;DHT22;38531;53.296;6.614;2024-02-28T00:55:22;4.50;99.90
52643;DHT22;38531;53.296;6.614;2024-02-28T00:57:48;3.30;99.90
52643;DHT22;38531;53.296;6.614;2024-02-28T01:00:14;2.00;99.90
52643;DHT22;38531;53.296;6.614;2024-02-28T01:02:40;2.50;99.90
52643;DHT22;38531;53.296;6.614;2024-02-28T01:05:07;3.50;99.90
52643;DHT22;38531;53.296;6.614;2024-02-28T01:07:33;2.40;99.90
52643;DHT22;38531;53.296;6.614;2024-02-28T01:09:58;3.60;99.90
52643;DHT22;38531;53.296;6.614;2024-02-28T01:12:24;1.70;99.90
52643;DHT22;38531;53.296;6.614;2024-02-28T01:14:50;4.10;99.90
52643;DHT22;38531;53.296;6.614;2024-02-28T01:17:16;2.40;99.90
52643;DHT22;38531;53.296;6.614;2024-02-28T01:19:41;3.90;99.90
52643;DHT22;38531;53.296;6.614;2024-02-28T01:22:07;3.00;99.90
52643;DHT22;38531;53.296;6.614;2024-02-28T01:24:34;1.70;99.90
52643;DHT22;38531;53.296;6.614;2024-02-28T01:27:00;3.80;99.90
52643;DHT22;38531;53.296;6.614;2024-02-28T01:29:26;4.00;99.90
52643;DHT22;38531;53.296;6.614;2024-02-28T01:31:51;4.30;99.90
52643;DHT22;38531;53.296;6.614;2024-02-28T01:34:17;3.20;99.90
52643;DHT22;38531;53.296;6.614;2024-02-28T01:36:44;4.90;99.90
52643;DHT22;38531;53.296;6.614;2024-02-28T01:39:09;4.60;99.90
52643;DHT22;38531;53.296;6.614;2024-02-28T01:41:35;4.50;99.90
52643;DHT22;38531;53.296;6.614;2024-02-28T01:44:01;4.60;99.90
52643;DHT22;38531;53.296;6.614;2024-02-28T01:46:27;4.10;99.90
52643;DHT22;38531;53.296;6.614;2024-02-28T01:48:54;4.50;99.90
52643;DHT22;38531;53.296;6.614;2024-02-28T01:51:21;4.40;99.90
52643;DHT22;38531;53.296;6.614;2024-02-28T01:53:48;2.90;99.90
52643;DHT22;38531;53.296;6.614;2024-02-28T01:56:15;3.60;99.90
52643;DHT22;38531;53.296;6.614;2024-02-28T01:58:43;2.40;99.90
52643;DHT22;38531;53.296;6.614;2024-02-28T02:01:11;3.20;99.90
52643;DHT22;38531;53.296;6.614;2024-02-28T02:03:36;4.60;99.90
52643;DHT22;38531;53.296;6.614;2024-02-28T02:06:03;3.80;99.90
52643;DHT22;38531;53.296;6.614;2024-02-28T02:08:29;3.30;99.90
52643;DHT22;38531;53.296;6.614;2024-02-28T02:10:55;2.40;99.90
52643;DHT22;38531;53.296;6.614;2024-02-28T02:13:20;1.70;99.90
52643;DHT22;38531;53.296;6.614;2024-02-28T02:15:46;2.20;99.90
52643;DHT22;38531;53.296;6.614;2024-02-28T02:18:12;2.10;99.90
52643;DHT22;38531;53.296;6.614;2024-02-28T02:20:42;4.00;99.90
52643;DHT22;38531;53.296;6.614;2024-02-28T02:23:09;2.50;99.90
52643;DHT22;38531;53.296;6.614;2024-02-28T02:25:46;4.20;99.90
52643;DHT22;38531;53.296;6.614;2024-02-28T02:28:12;2.30;99.90
52643;DHT22;38531;53.296;6.614;2024-02-28T02:30:39;1.80;99.90
52643;DHT22;38531;53.296;6.614;2024-02-28T02:33:05;2.60;99.90
52643;DHT22;38531;53.296;6.614;2024-02-28T02:35:32;3.90;99.90
52643;DHT22;38531;53.296;6.614;2024-02-28T02:37:58;1.90;99.90
52643;DHT22;38531;53.296;6.614;2024-02-28T02:40:24;2.70;99.90
52643;DHT22;38531;53.296;6.614;2024-02-28T02:42:49;4.70;99.90
52643;DHT22;38531;53.296;6.614;2024-02-28T02:45:16;4.30;99.90
52643;DHT22;38531;53.296;6.614;2024-02-28T02:47:42;1.70;99.90
52643;DHT22;38531;53.296;6.614;2024-02-28T02:50:09;4.00;99.90
52643;DHT22;38531;53.296;6.614;2024-02-28T02:52:35;1.10;99.90
52643;DHT22;38531;53.296;6.614;2024-02-28T02:55:01;4.40;99.90
52643;DHT22;38531;53.296;6.614;2024-02-28T02:57:27;4.10;99.90
52643;DHT22;38531;53.296;6.614;2024-02-28T02:59:53;3.90;99.90
52643;DHT22;38531;53.296;6.614;2024-02-28T03:02:18;5.10;99.90
52643;DHT22;38531;53.296;6.614;2024-02-28T03:04:44;0.50;99.90
52643;DHT22;38531;53.296;6.614;2024-02-28T03:07:10;2.20;99.90
52643;DHT22;38531;53.296;6.614;2024-02-28T03:09:35;4.90;99.90
52643;DHT22;38531;53.296;6.614;2024-02-28T03:12:01;4.20;99.90
52643;DHT22;38531;53.296;6.614;2024-02-28T03:14:27;3.80;99.90
52643;DHT22;38531;53.296;6.614;2024-02-28T03:16:53;3.50;99.90
52643;DHT22;38531;53.296;6.614;2024-02-28T03:19:19;3.60;99.90
52643;DHT22;38531;53.296;6.614;2024-02-28T03:21:45;4.50;99.90
52643;DHT22;38531;53.296;6.614;2024-02-28T03:24:11;1.80;99.90
52643;DHT22;38531;53.296;6.614;2024-02-28T03:26:36;2.70;99.90
52643;DHT22;38531;53.296;6.614;2024-02-28T03:29:02;2.70;99.90
52643;DHT22;38531;53.296;6.614;2024-02-28T03:31:28;2.50;99.90
52643;DHT22;38531;53.296;6.614;2024-02-28T03:33:54;4.20;99.90
52643;DHT22;38531;53.296;6.614;2024-02-28T03:36:19;4.50;99.90
52643;DHT22;38531;53.296;6.614;2024-02-28T03:38:45;4.40;99.90
52643;DHT22;38531;53.296;6.614;2024-02-28T03:41:11;4.40;99.90
52643;DHT22;38531;53.296;6.614;2024-02-28T03:43:36;2.50;99.90
52643;DHT22;38531;53.296;6.614;2024-02-28T03:46:02;2.80;99.90
52643;DHT22;38531;53.296;6.614;2024-02-28T03:48:28;2.60;99.90
52643;DHT22;38531;53.296;6.614;2024-02-28T03:50:54;4.20;99.90
52643;DHT22;38531;53.296;6.614;2024-02-28T03:53:19;3.90;99.90
52643;DHT22;38531;53.296;6.614;2024-02-28T03:55:45;2.40;99.90
52643;DHT22;38531;53.296;6.614;2024-02-28T03:58:11;2.30;99.90
52643;DHT22;38531;53.296;6.614;2024-02-28T04:00:36;3.60;99.90
52643;DHT22;38531;53.296;6.614;2024-02-28T04:03:03;4.00;99.90
52643;DHT22;38531;53.296;6.614;2024-02-28T04:05:29;2.70;99.90
52643;DHT22;38531;53.296;6.614;2024-02-28T04:07:55;1.40;99.90
52643;DHT22;38531;53.296;6.614;2024-02-28T04:10:21;2.70;99.90
52643;DHT22;38531;53.296;6.614;2024-02-28T04:12:47;2.70;99.90
52643;DHT22;38531;53.296;6.614;2024-02-28T04:15:13;2.10;99.90
52643;DHT22;38531;53.296;6.614;2024-02-28T04:17:39;2.80;99.90
52643;DHT22;38531;53.296;6.614;2024-02-28T04:20:09;4.40;99.90
52643;DHT22;38531;53.296;6.614;2024-02-28T04:22:35;3.80;99.90
52643;DHT22;38531;53.296;6.614;2024-02-28T04:25:01;4.40;99.90
52643;DHT22;38531;53.296;6.614;2024-02-28T04:27:26;4.80;99.90
52643;DHT22;38531;53.296;6.614;2024-02-28T04:29:52;3.90;99.90
52643;DHT22;38531;53.296;6.614;2024-02-28T04:32:18;4.70;99.90
52643;DHT22;38531;53.296;6.614;2024-02-28T04:34:43;2.70;99.90
52643;DHT22;38531;53.296;6.614;2024-02-28T04:37:09;2.80;99.90
52643;DHT22;38531;53.296;6.614;2024-02-28T04:39:35;3.80;99.90
52643;DHT22;38531;53.296;6.614;2024-02-28T04:42:01;4.10;99.90
52643;DHT22;38531;53.296;6.614;2024-02-28T04:44:26;4.10;99.90
52643;DHT22;38531;53.296;6.614;2024-02-28T04:46:52;4.10;99.90
52643;DHT22;38531;53.296;6.614;2024-02-28T04:49:18;2.30;99.90
52643;DHT22;38531;53.296;6.614;2024-02-28T04:51:43;4.30;99.90
52643;DHT22;38531;53.296;6.614;2024-02-28T04:54:09;4.30;99.90
52643;DHT22;38531;53.296;6.614;2024-02-28T04:56:40;4.50;99.90
52643;DHT22;38531;53.296;6.614;2024-02-28T04:59:07;2.60;99.90
52643;DHT22;38531;53.296;6.614;2024-02-28T05:01:32;5.00;99.90
52643;DHT22;38531;53.296;6.614;2024-02-28T05:04:00;2.00;99.90
52643;DHT22;38531;53.296;6.614;2024-02-28T05:06:27;2.60;99.90
52643;DHT22;38531;53.296;6.614;2024-02-28T05:08:53;4.80;99.90
52643;DHT22;38531;53.296;6.614;2024-02-28T05:11:19;5.40;99.90
52643;DHT22;38531;53.296;6.614;2024-02-28T05:13:44;5.50;99.90
52643;DHT22;38531;53.296;6.614;2024-02-28T05:16:14;5.40;99.90
52643;DHT22;38531;53.296;6.614;2024-02-28T05:18:40;4.40;99.90
52643;DHT22;38531;53.296;6.614;2024-02-28T05:21:06;5.10;99.90
52643;DHT22;38531;53.296;6.614;2024-02-28T05:23:32;4.00;99.90
52643;DHT22;38531;53.296;6.614;2024-02-28T05:25:57;4.50;99.90
52643;DHT22;38531;53.296;6.614;2024-02-28T05:28:30;1.80;99.90
52643;DHT22;38531;53.296;6.614;2024-02-28T05:30:57;3.70;99.90
52643;DHT22;38531;53.296;6.614;2024-02-28T05:33:22;1.40;99.90
52643;DHT22;38531;53.296;6.614;2024-02-28T05:35:48;3.70;99.90
52643;DHT22;38531;53.296;6.614;2024-02-28T05:38:14;4.80;99.90
52643;DHT22;38531;53.296;6.614;2024-02-28T05:40:41;4.70;99.90
52643;DHT22;38531;53.296;6.614;2024-02-28T05:43:07;2.10;99.90
52643;DHT22;38531;53.296;6.614;2024-02-28T05:45:33;5.30;99.90
52643;DHT22;38531;53.296;6.614;2024-02-28T05:47:59;3.90;99.90
52643;DHT22;38531;53.296;6.614;2024-02-28T05:50:25;5.30;99.90
52643;DHT22;38531;53.296;6.614;2024-02-28T05:52:50;3.30;99.90
52643;DHT22;38531;53.296;6.614;2024-02-28T05:55:17;5.30;99.90
52643;DHT22;38531;53.296;6.614;2024-02-28T05:57:43;3.40;99.90
52643;DHT22;38531;53.296;6.614;2024-02-28T06:00:09;4.60;99.90
52643;DHT22;38531;53.296;6.614;2024-02-28T06:02:39;3.50;99.90
52643;DHT22;38531;53.296;6.614;2024-02-28T06:05:05;5.40;99.90
52643;DHT22;38531;53.296;6.614;2024-02-28T06:07:31;3.50;99.90
52643;DHT22;38531;53.296;6.614;2024-02-28T06:09:57;5.40;99.90
52643;DHT22;38531;53.296;6.614;2024-02-28T06:12:22;3.60;99.90
52643;DHT22;38531;53.296;6.614;2024-02-28T06:14:49;3.30;99.90
52643;DHT22;38531;53.296;6.614;2024-02-28T06:17:15;3.60;99.90
52643;DHT22;38531;53.296;6.614;2024-02-28T06:19:40;3.50;99.90
52643;DHT22;38531;53.296;6.614;2024-02-28T06:22:06;3.60;99.90
52643;DHT22;38531;53.296;6.614;2024-02-28T06:24:36;3.70;99.90
52643;DHT22;38531;53.296;6.614;2024-02-28T06:27:01;3.80;99.90
52643;DHT22;38531;53.296;6.614;2024-02-28T06:29:27;3.40;99.90
52643;DHT22;38531;53.296;6.614;2024-02-28T06:31:53;3.70;99.90
52643;DHT22;38531;53.296;6.614;2024-02-28T06:34:21;5.70;99.90
52643;DHT22;38531;53.296;6.614;2024-02-28T06:36:48;4.80;99.90
52643;DHT22;38531;53.296;6.614;2024-02-28T06:39:13;5.60;99.90
52643;DHT22;38531;53.296;6.614;2024-02-28T06:41:40;4.60;99.90
52643;DHT22;38531;53.296;6.614;2024-02-28T06:44:06;3.60;99.90
52643;DHT22;38531;53.296;6.614;2024-02-28T06:46:33;5.10;99.90
52643;DHT22;38531;53.296;6.614;2024-02-28T06:48:58;5.70;99.90
52643;DHT22;38531;53.296;6.614;2024-02-28T06:51:27;4.40;99.90
52643;DHT22;38531;53.296;6.614;2024-02-28T06:53:52;4.70;99.90
52643;DHT22;38531;53.296;6.614;2024-02-28T06:56:18;4.40;99.90
52643;DHT22;38531;53.296;6.614;2024-02-28T06:58:44;4.80;99.90
52643;DHT22;38531;53.296;6.614;2024-02-28T07:01:10;3.90;99.90
52643;DHT22;38531;53.296;6.614;2024-02-28T07:03:35;4.00;99.90
52643;DHT22;38531;53.296;6.614;2024-02-28T07:06:01;5.20;99.90
52643;DHT22;38531;53.296;6.614;2024-02-28T07:08:27;4.10;99.90
52643;DHT22;38531;53.296;6.614;2024-02-28T07:10:52;5.50;99.90
52643;DHT22;38531;53.296;6.614;2024-02-28T07:13:22;5.40;99.90
52643;DHT22;38531;53.296;6.614;2024-02-28T07:15:48;4.00;99.90
52643;DHT22;38531;53.296;6.614;2024-02-28T07:18:14;5.80;99.90
52643;DHT22;38531;53.296;6.614;2024-02-28T07:20:40;5.50;99.90
52643;DHT22;38531;53.296;6.614;2024-02-28T07:23:06;4.10;99.90
52643;DHT22;38531;53.296;6.614;2024-02-28T07:25:32;5.60;99.90
52643;DHT22;38531;53.296;6.614;2024-02-28T07:28:00;5.90;99.90
52643;DHT22;38531;53.296;6.614;2024-02-28T07:30:26;4.00;99.90
52643;DHT22;38531;53.296;6.614;2024-02-28T07:32:52;4.20;99.90
52643;DHT22;38531;53.296;6.614;2024-02-28T07:35:18;4.00;99.90
52643;DHT22;38531;53.296;6.614;2024-02-28T07:37:47;4.20;99.90
52643;DHT22;38531;53.296;6.614;2024-02-28T07:40:14;4.10;99.90
52643;DHT22;38531;53.296;6.614;2024-02-28T07:42:39;4.20;99.90
52643;DHT22;38531;53.296;6.614;2024-02-28T07:45:05;4.00;99.90
52643;DHT22;38531;53.296;6.614;2024-02-28T07:47:34;3.90;99.90
52643;DHT22;38531;53.296;6.614;2024-02-28T07:50:00;4.60;99.90
52643;DHT22;38531;53.296;6.614;2024-02-28T07:52:25;4.00;99.90
52643;DHT22;38531;53.296;6.614;2024-02-28T07:54:51;4.30;99.90
52643;DHT22;38531;53.296;6.614;2024-02-28T07:57:17;6.00;99.90
52643;DHT22;38531;53.296;6.614;2024-02-28T07:59:43;4.20;99.90
52643;DHT22;38531;53.296;6.614;2024-02-28T08:02:09;4.60;99.90
52643;DHT22;38531;53.296;6.614;2024-02-28T08:04:37;5.70;99.90
52643;DHT22;38531;53.296;6.614;2024-02-28T08:07:03;5.10;99.90
52643;DHT22;38531;53.296;6.614;2024-02-28T08:09:29;4.50;99.90
52643;DHT22;38531;53.296;6.614;2024-02-28T08:11:54;6.90;99.90
52643;DHT22;38531;53.296;6.614;2024-02-28T08:14:20;5.60;99.90
52643;DHT22;38531;53.296;6.614;2024-02-28T08:16:46;5.70;99.90
52643;DHT22;38531;53.296;6.614;2024-02-28T08:19:12;4.20;99.90
52643;DHT22;38531;53.296;6.614;2024-02-28T08:24:04;4.70;99.90
52643;DHT22;38531;53.296;6.614;2024-02-28T08:26:31;5.00;99.90
52643;DHT22;38531;53.296;6.614;2024-02-28T08:28:56;6.70;99.90
52643;DHT22;38531;53.296;6.614;2024-02-28T08:31:22;4.30;99.90
52643;DHT22;38531;53.296;6.614;2024-02-28T08:33:48;5.20;99.90
52643;DHT22;38531;53.296;6.614;2024-02-28T08:36:14;4.90;99.90
52643;DHT22;38531;53.296;6.614;2024-02-28T08:38:41;5.80;99.90
52643;DHT22;38531;53.296;6.614;2024-02-28T08:41:07;5.50;99.90
52643;DHT22;38531;53.296;6.614;2024-02-28T08:43:42;5.30;99.90
52643;DHT22;38531;53.296;6.614;2024-02-28T08:46:08;5.80;99.90
52643;DHT22;38531;53.296;6.614;2024-02-28T08:48:34;5.80;99.90
52643;DHT22;38531;53.296;6.614;2024-02-28T08:50:59;7.30;99.90
52643;DHT22;38531;53.296;6.614;2024-02-28T08:53:26;5.80;99.90
52643;DHT22;38531;53.296;6.614;2024-02-28T08:55:52;5.80;99.90
52643;DHT22;38531;53.296;6.614;2024-02-28T08:58:17;6.00;99.90
52643;DHT22;38531;53.296;6.614;2024-02-28T09:00:43;5.40;99.90
52643;DHT22;38531;53.296;6.614;2024-02-28T09:03:09;7.10;99.90
52643;DHT22;38531;53.296;6.614;2024-02-28T09:05:34;6.80;99.90
52643;DHT22;38531;53.296;6.614;2024-02-28T09:10:27;5.70;99.90
52643;DHT22;38531;53.296;6.614;2024-02-28T09:12:54;6.00;99.90
52643;DHT22;38531;53.296;6.614;2024-02-28T09:15:20;5.90;99.90
52643;DHT22;38531;53.296;6.614;2024-02-28T09:17:46;5.00;99.90
52643;DHT22;38531;53.296;6.614;2024-02-28T09:20:12;7.50;99.90
52643;DHT22;38531;53.296;6.614;2024-02-28T09:22:38;6.10;99.90
52643;DHT22;38531;53.296;6.614;2024-02-28T09:25:04;6.10;99.90
52643;DHT22;38531;53.296;6.614;2024-02-28T09:27:31;6.10;99.90
52643;DHT22;38531;53.296;6.614;2024-02-28T09:29:57;6.50;99.90
52643;DHT22;38531;53.296;6.614;2024-02-28T09:32:22;6.40;99.90
52643;DHT22;38531;53.296;6.614;2024-02-28T09:34:48;6.30;99.90
52643;DHT22;38531;53.296;6.614;2024-02-28T09:39:42;6.50;99.90
52643;DHT22;38531;53.296;6.614;2024-02-28T09:42:09;7.30;99.90
52643;DHT22;38531;53.296;6.614;2024-02-28T09:44:36;6.60;99.90
52643;DHT22;38531;53.296;6.614;2024-02-28T09:47:03;7.20;99.90
52643;DHT22;38531;53.296;6.614;2024-02-28T09:49:31;6.60;99.90
52643;DHT22;38531;53.296;6.614;2024-02-28T09:51:58;8.10;99.90
52643;DHT22;38531;53.296;6.614;2024-02-28T09:54:25;6.60;99.90
52643;DHT22;38531;53.296;6.614;2024-02-28T09:56:51;7.50;99.90
52643;DHT22;38531;53.296;6.614;2024-02-28T09:59:21;7.50;99.90
52643;DHT22;38531;53.296;6.614;2024-02-28T10:01:55;7.50;99.90
52643;DHT22;38531;53.296;6.614;2024-02-28T10:04:21;6.70;99.90
52643;DHT22;38531;53.296;6.614;2024-02-28T10:06:48;7.80;99.90
52643;DHT22;38531;53.296;6.614;2024-02-28T10:09:15;8.00;99.90
52643;DHT22;38531;53.296;6.614;2024-02-28T10:14:12;7.00;99.90
52643;DHT22;38531;53.296;6.614;2024-02-28T10:16:42;8.00;99.90
52643;DHT22;38531;53.296;6.614;2024-02-28T10:19:08;8.00;99.90
52643;DHT22;38531;53.296;6.614;2024-02-28T10:21:33;8.20;99.90
52643;DHT22;38531;53.296;6.614;2024-02-28T10:23:59;8.90;99.90
52643;DHT22;38531;53.296;6.614;2024-02-28T10:26:25;8.60;99.90
52643;DHT22;38531;53.296;6.614;2024-02-28T10:28:51;7.40;99.90
52643;DHT22;38531;53.296;6.614;2024-02-28T10:31:17;8.20;99.90
52643;DHT22;38531;53.296;6.614;2024-02-28T10:33:43;8.30;99.90
52643;DHT22;38531;53.296;6.614;2024-02-28T10:36:09;7.80;99.90
52643;DHT22;38531;53.296;6.614;2024-02-28T10:38:34;8.90;99.90
52643;DHT22;38531;53.296;6.614;2024-02-28T10:41:02;8.20;99.90
52643;DHT22;38531;53.296;6.614;2024-02-28T10:43:29;7.60;99.90
52643;DHT22;38531;53.296;6.614;2024-02-28T10:45:59;8.20;99.90
52643;DHT22;38531;53.296;6.614;2024-02-28T10:48:25;7.80;99.90
52643;DHT22;38531;53.296;6.614;2024-02-28T10:50:51;8.10;99.90
52643;DHT22;38531;53.296;6.614;2024-02-28T10:53:22;9.10;99.90
52643;DHT22;38531;53.296;6.614;2024-02-28T10:55:54;7.60;99.90
52643;DHT22;38531;53.296;6.614;2024-02-28T10:58:22;9.00;99.90
52643;DHT22;38531;53.296;6.614;2024-02-28T11:00:50;8.70;99.90
52643;DHT22;38531;53.296;6.614;2024-02-28T11:03:17;7.90;99.90
52643;DHT22;38531;53.296;6.614;2024-02-28T11:05:44;8.70;99.90
52643;DHT22;38531;53.296;6.614;2024-02-28T11:08:33;8.50;99.90
52643;DHT22;38531;53.296;6.614;2024-02-28T11:11:03;7.60;99.90
52643;DHT22;38531;53.296;6.614;2024-02-28T11:13:30;7.70;99.90
52643;DHT22;38531;53.296;6.614;2024-02-28T11:16:08;9.10;99.90
52643;DHT22;38531;53.296;6.614;2024-02-28T11:18:34;8.20;99.90
52643;DHT22;38531;53.296;6.614;2024-02-28T11:21:00;7.90;99.90
52643;DHT22;38531;53.296;6.614;2024-02-28T11:23:35;8.10;99.90
52643;DHT22;38531;53.296;6.614;2024-02-28T11:26:02;8.30;99.90
52643;DHT22;38531;53.296;6.614;2024-02-28T11:28:29;8.10;99.90
52643;DHT22;38531;53.296;6.614;2024-02-28T11:30:54;8.20;99.90
52643;DHT22;38531;53.296;6.614;2024-02-28T11:33:20;8.20;99.90
52643;DHT22;38531;53.296;6.614;2024-02-28T11:35:55;8.30;99.90
52643;DHT22;38531;53.296;6.614;2024-02-28T11:38:21;9.10;99.90
52643;DHT22;38531;53.296;6.614;2024-02-28T11:40:49;9.50;99.90
52643;DHT22;38531;53.296;6.614;2024-02-28T11:43:15;8.30;99.90
52643;DHT22;38531;53.296;6.614;2024-02-28T11:45:41;8.30;99.90
52643;DHT22;38531;53.296;6.614;2024-02-28T11:48:07;8.50;99.90
52643;DHT22;38531;53.296;6.614;2024-02-28T11:50:34;8.50;99.90
52643;DHT22;38531;53.296;6.614;2024-02-28T11:52:59;8.60;99.90
52643;DHT22;38531;53.296;6.614;2024-02-28T11:55:27;8.60;99.90
52643;DHT22;38531;53.296;6.614;2024-02-28T11:57:53;8.80;99.90
52643;DHT22;38531;53.296;6.614;2024-02-28T12:00:18;8.70;99.90
52643;DHT22;38531;53.296;6.614;2024-02-28T12:02:44;8.70;99.90
52643;DHT22;38531;53.296;6.614;2024-02-28T12:05:10;8.80;99.90
52643;DHT22;38531;53.296;6.614;2024-02-28T12:07:36;8.90;99.90
52643;DHT22;38531;53.296;6.614;2024-02-28T12:10:02;9.50;99.90
52643;DHT22;38531;53.296;6.614;2024-02-28T12:12:28;9.00;99.90
52643;DHT22;38531;53.296;6.614;2024-02-28T12:15:01;9.10;99.90
52643;DHT22;38531;53.296;6.614;2024-02-28T12:17:29;9.10;99.90
52643;DHT22;38531;53.296;6.614;2024-02-28T12:19:54;9.40;99.90
52643;DHT22;38531;53.296;6.614;2024-02-28T12:22:21;9.30;99.90
52643;DHT22;38531;53.296;6.614;2024-02-28T12:24:47;9.50;99.90
52643;DHT22;38531;53.296;6.614;2024-02-28T12:27:13;9.10;99.90
52643;DHT22;38531;53.296;6.614;2024-02-28T12:29:38;9.10;99.90
52643;DHT22;38531;53.296;6.614;2024-02-28T12:32:04;9.50;99.90
52643;DHT22;38531;53.296;6.614;2024-02-28T12:34:30;9.20;99.90
52643;DHT22;38531;53.296;6.614;2024-02-28T12:36:55;9.60;99.90
52643;DHT22;38531;53.296;6.614;2024-02-28T12:39:21;9.40;99.90
52643;DHT22;38531;53.296;6.614;2024-02-28T12:41:47;9.40;99.90
52643;DHT22;38531;53.296;6.614;2024-02-28T12:44:14;10.20;99.90
52643;DHT22;38531;53.296;6.614;2024-02-28T12:46:39;8.90;99.90
52643;DHT22;38531;53.296;6.614;2024-02-28T12:49:05;9.70;99.90
52643;DHT22;38531;53.296;6.614;2024-02-28T12:51:39;8.60;99.90
52643;DHT22;38531;53.296;6.614;2024-02-28T12:54:06;9.40;99.90
52643;DHT22;38531;53.296;6.614;2024-02-28T12:56:33;10.00;99.90
52643;DHT22;38531;53.296;6.614;2024-02-28T12:58:59;8.40;99.90
52643;DHT22;38531;53.296;6.614;2024-02-28T13:01:26;8.40;99.90
52643;DHT22;38531;53.296;6.614;2024-02-28T13:03:52;9.50;99.90
52643;DHT22;38531;53.296;6.614;2024-02-28T13:06:18;8.50;99.90
52643;DHT22;38531;53.296;6.614;2024-02-28T13:08:44;8.90;99.90
52643;DHT22;38531;53.296;6.614;2024-02-28T13:11:10;8.50;99.90
52643;DHT22;38531;53.296;6.614;2024-02-28T13:13:36;8.60;99.90
52643;DHT22;38531;53.296;6.614;2024-02-28T13:16:02;9.00;99.90
52643;DHT22;38531;53.296;6.614;2024-02-28T13:18:28;8.90;99.90
52643;DHT22;38531;53.296;6.614;2024-02-28T13:20:53;9.20;99.90
52643;DHT22;38531;53.296;6.614;2024-02-28T13:23:19;8.30;99.90
52643;DHT22;38531;53.296;6.614;2024-02-28T13:25:45;9.50;99.90
52643;DHT22;38531;53.296;6.614;2024-02-28T13:28:10;9.90;99.90
52643;DHT22;38531;53.296;6.614;2024-02-28T13:30:36;8.60;99.90
52643;DHT22;38531;53.296;6.614;2024-02-28T13:33:05;9.40;99.90
52643;DHT22;38531;53.296;6.614;2024-02-28T13:35:32;9.00;99.90
52643;DHT22;38531;53.296;6.614;2024-02-28T13:37:57;8.50;99.90
52643;DHT22;38531;53.296;6.614;2024-02-28T13:40:28;9.00;99.90
52643;DHT22;38531;53.296;6.614;2024-02-28T13:42:54;8.50;99.90
52643;DHT22;38531;53.296;6.614;2024-02-28T13:45:20;8.40;99.90
52643;DHT22;38531;53.296;6.614;2024-02-28T13:47:45;8.80;99.90
52643;DHT22;38531;53.296;6.614;2024-02-28T13:50:11;9.60;99.90
52643;DHT22;38531;53.296;6.614;2024-02-28T13:52:37;8.80;99.90
52643;DHT22;38531;53.296;6.614;2024-02-28T13:55:03;8.70;99.90
52643;DHT22;38531;53.296;6.614;2024-02-28T13:57:29;8.70;99.90
52643;DHT22;38531;53.296;6.614;2024-02-28T13:59:54;8.80;99.90
52643;DHT22;38531;53.296;6.614;2024-02-28T14:02:21;8.80;99.90
52643;DHT22;38531;53.296;6.614;2024-02-28T14:04:47;8.90;99.90
52643;DHT22;38531;53.296;6.614;2024-02-28T14:07:15;9.70;99.90
52643;DHT22;38531;53.296;6.614;2024-02-28T14:09:42;9.20;99.90
52643;DHT22;38531;53.296;6.614;2024-02-28T14:12:09;9.00;99.90
52643;DHT22;38531;53.296;6.614;2024-02-28T14:14:35;7.20;99.90
52643;DHT22;38531;53.296;6.614;2024-02-28T14:17:01;9.10;99.90
52643;DHT22;38531;53.296;6.614;2024-02-28T14:19:28;9.50;99.90
52643;DHT22;38531;53.296;6.614;2024-02-28T14:21:54;9.20;99.90
52643;DHT22;38531;53.296;6.614;2024-02-28T14:24:20;9.20;99.90
52643;DHT22;38531;53.296;6.614;2024-02-28T14:26:46;9.50;99.90
52643;DHT22;38531;53.296;6.614;2024-02-28T14:29:12;9.20;99.90
52643;DHT22;38531;53.296;6.614;2024-02-28T14:31:37;9.60;99.90
52643;DHT22;38531;53.296;6.614;2024-02-28T14:34:03;9.40;99.90
52643;DHT22;38531;53.296;6.614;2024-02-28T14:36:31;9.90;99.90
52643;DHT22;38531;53.296;6.614;2024-02-28T14:38:57;9.80;99.90
52643;DHT22;38531;53.296;6.614;2024-02-28T14:41:23;10.00;99.90
52643;DHT22;38531;53.296;6.614;2024-02-28T14:43:49;9.50;99.90
52643;DHT22;38531;53.296;6.614;2024-02-28T14:46:15;9.50;99.90
52643;DHT22;38531;53.296;6.614;2024-02-28T14:48:43;9.10;99.90
52643;DHT22;38531;53.296;6.614;2024-02-28T14:51:17;9.60;99.90
52643;DHT22;38531;53.296;6.614;2024-02-28T14:53:43;9.70;99.90
52643;DHT22;38531;53.296;6.614;2024-02-28T14:56:09;9.70;99.90
52643;DHT22;38531;53.296;6.614;2024-02-28T14:58:34;9.00;99.90
52643;DHT22;38531;53.296;6.614;2024-02-28T15:01:03;9.20;99.90
52643;DHT22;38531;53.296;6.614;2024-02-28T15:03:30;9.20;99.90
52643;DHT22;38531;53.296;6.614;2024-02-28T15:05:56;9.90;99.90
52643;DHT22;38531;53.296;6.614;2024-02-28T15:08:21;9.20;99.90
52643;DHT22;38531;53.296;6.614;2024-02-28T15:10:49;11.80;99.90
52643;DHT22;38531;53.296;6.614;2024-02-28T15:13:15;10.30;99.90
52643;DHT22;38531;53.296;6.614;2024-02-28T15:15:41;9.20;99.90
52643;DHT22;38531;53.296;6.614;2024-02-28T15:18:07;10.30;99.90
52643;DHT22;38531;53.296;6.614;2024-02-28T15:20:33;9.10;99.90
52643;DHT22;38531;53.296;6.614;2024-02-28T15:22:58;9.20;99.90
52643;DHT22;38531;53.296;6.614;2024-02-28T15:25:25;10.30;99.90
52643;DHT22;38531;53.296;6.614;2024-02-28T15:27:50;9.20;99.90
52643;DHT22;38531;53.296;6.614;2024-02-28T15:30:16;9.60;99.90
52643;DHT22;38531;53.296;6.614;2024-02-28T15:32:42;9.10;99.90
52643;DHT22;38531;53.296;6.614;2024-02-28T15:35:08;9.10;99.90
52643;DHT22;38531;53.296;6.614;2024-02-28T15:37:34;9.00;99.90
52643;DHT22;38531;53.296;6.614;2024-02-28T15:40:04;9.80;99.90
52643;DHT22;38531;53.296;6.614;2024-02-28T15:42:33;9.10;99.90
52643;DHT22;38531;53.296;6.614;2024-02-28T15:44:59;9.80;99.90
52643;DHT22;38531;53.296;6.614;2024-02-28T15:47:24;8.90;99.90
52643;DHT22;38531;53.296;6.614;2024-02-28T15:49:51;9.00;99.90